sensor_id;sensor_type;location;lat;lon;timestamp;pressure;altitude;pressure_sealevel;temperature;humidity
12973;BME280;6551;51.056;9.466;2024-03-02T00:01:16;96411.34;;;13.65;61.29
12973;BME280;6551;51.056;9.466;2024-03-02T00:03:42;96416.41;;;13.57;61.82
12973;BME280;6551;51.056;9.466;2024-03-02T00:06:09;96405.44;;;13.53;62.24
12973;BME280;6551;51.056;9.466;2024-03-02T00:08:35;96410.28;;;13.41;61.71
12973;BME280;6551;51.056;9.466;2024-03-02T00:11:01;96409.19;;;13.42;62.13
12973;BME280;6551;51.056;9.466;2024-03-02T00:13:30;96409.47;;;13.71;61.74
12973;BME280;6551;51.056;9.466;2024-03-02T00:15:58;96405.44;;;13.58;61.74
12973;BME280;6551;51.056;9.466;2024-03-02T00:18:31;96409.72;;;13.69;61.71
12973;BME280;6551;51.056;9.466;2024-03-02T00:20:58;96408.66;;;13.40;62.30
12973;BME280;6551;51.056;9.466;2024-03-02T00:23:30;96401.72;;;13.59;61.90
12973;BME280;6551;51.056;9.466;2024-03-02T00:25:58;96408.94;;;13.48;62.04
12973;BME280;6551;51.056;9.466;2024-03-02T00:28:32;96409.47;;;13.56;62.24
12973;BME280;6551;51.056;9.466;2024-03-02T00:31:12;96407.31;;;13.73;61.66
12973;BME280;6551;51.056;9.466;2024-03-02T00:33:47;96407.59;;;13.51;62.04
12973;BME280;6551;51.056;9.466;2024-03-02T00:36:35;96409.47;;;13.66;61.72
12973;BME280;6551;51.056;9.466;2024-03-02T00:39:02;96405.16;;;13.90;61.51
12973;BME280;6551;51.056;9.466;2024-03-02T00:41:30;96409.91;;;14.08;60.73
12973;BME280;6551;51.056;9.466;2024-03-02T00:44:01;96409.94;;;14.13;60.36
12973;BME280;6551;51.056;9.466;2024-03-02T00:46:33;96413.91;;;14.26;59.71
12973;BME280;6551;51.056;9.466;2024-03-02T00:49:01;96409.88;;;14.28;59.94
12973;BME280;6551;51.056;9.466;2024-03-02T00:51:30;96408.25;;;14.27;59.98
12973;BME280;6551;51.056;9.466;2024-03-02T00:54:05;96412.84;;;14.27;59.43
12973;BME280;6551;51.056;9.466;2024-03-02T00:56:32;96416.88;;;14.24;59.52
12973;BME280;6551;51.056;9.466;2024-03-02T00:59:00;96407.00;;;14.10;59.93
12973;BME280;6551;51.056;9.466;2024-03-02T01:01:27;96412.81;;;14.22;59.34
12973;BME280;6551;51.056;9.466;2024-03-02T01:03:53;96412.03;;;14.16;60.10
12973;BME280;6551;51.056;9.466;2024-03-02T01:06:20;96399.78;;;14.00;60.24
12973;BME280;6551;51.056;9.466;2024-03-02T01:08:46;96409.94;;;14.03;60.33
12973;BME280;6551;51.056;9.466;2024-03-02T01:11:18;96408.81;;;14.19;60.23
12973;BME280;6551;51.056;9.466;2024-03-02T01:13:45;96403.53;;;14.04;60.39
12973;BME280;6551;51.056;9.466;2024-03-02T01:16:11;96415.56;;;14.06;60.79
12973;BME280;6551;51.056;9.466;2024-03-02T01:18:37;96393.06;;;14.02;60.46
12973;BME280;6551;51.056;9.466;2024-03-02T01:21:03;96397.66;;;13.92;61.16
12973;BME280;6551;51.056;9.466;2024-03-02T01:23:29;96395.81;;;13.67;61.68
12973;BME280;6551;51.056;9.466;2024-03-02T01:25:56;96393.63;;;13.94;61.82
12973;BME280;6551;51.056;9.466;2024-03-02T01:28:22;96392.06;;;13.73;62.07
12973;BME280;6551;51.056;9.466;2024-03-02T01:30:48;96383.22;;;13.78;61.97
12973;BME280;6551;51.056;9.466;2024-03-02T01:33:19;96389.13;;;13.75;62.25
12973;BME280;6551;51.056;9.466;2024-03-02T01:35:46;96389.91;;;13.85;61.95
12973;BME280;6551;51.056;9.466;2024-03-02T01:38:11;96379.78;;;13.62;62.11
12973;BME280;6551;51.056;9.466;2024-03-02T01:40:38;96379.50;;;13.59;62.73
12973;BME280;6551;51.056;9.466;2024-03-02T01:43:05;96379.75;;;13.72;62.30
12973;BME280;6551;51.056;9.466;2024-03-02T01:45:31;96376.56;;;13.60;62.43
12973;BME280;6551;51.056;9.466;2024-03-02T01:47:59;96380.84;;;13.61;62.43
12973;BME280;6551;51.056;9.466;2024-03-02T01:50:32;96376.84;;;13.59;62.79
12973;BME280;6551;51.056;9.466;2024-03-02T01:52:59;96377.66;;;13.49;62.73
12973;BME280;6551;51.056;9.466;2024-03-02T01:55:25;96374.97;;;13.54;62.76
12973;BME280;6551;51.056;9.466;2024-03-02T01:57:53;96374.69;;;13.76;62.68
12973;BME280;6551;51.056;9.466;2024-03-02T02:00:24;96376.50;;;13.95;62.21
12973;BME280;6551;51.056;9.466;2024-03-02T02:02:52;96377.84;;;13.98;61.76
12973;BME280;6551;51.056;9.466;2024-03-02T02:05:20;96370.63;;;13.93;62.17
12973;BME280;6551;51.056;9.466;2024-03-02T02:07:46;96373.06;;;13.70;62.20
12973;BME280;6551;51.056;9.466;2024-03-02T02:10:11;96368.81;;;13.74;61.88
12973;BME280;6551;51.056;9.466;2024-03-02T02:12:37;96360.78;;;13.74;61.98
12973;BME280;6551;51.056;9.466;2024-03-02T02:17:50;96364.78;;;13.76;62.06
12973;BME280;6551;51.056;9.466;2024-03-02T02:20:16;96359.94;;;13.83;61.55
12973;BME280;6551;51.056;9.466;2024-03-02T02:23:01;96359.66;;;13.95;60.80
12973;BME280;6551;51.056;9.466;2024-03-02T02:25:28;96355.69;;;13.72;61.65
12973;BME280;6551;51.056;9.466;2024-03-02T02:27:56;96355.13;;;13.85;61.65
12973;BME280;6551;51.056;9.466;2024-03-02T02:30:29;96351.91;;;13.83;61.11
12973;BME280;6551;51.056;9.466;2024-03-02T02:32:55;96354.63;;;13.73;61.17
12973;BME280;6551;51.056;9.466;2024-03-02T02:35:21;96350.59;;;13.76;60.84
12973;BME280;6551;51.056;9.466;2024-03-02T02:37:49;96348.72;;;13.76;61.34
12973;BME280;6551;51.056;9.466;2024-03-02T02:40:16;96346.84;;;13.72;61.41
12973;BME280;6551;51.056;9.466;2024-03-02T02:42:44;96351.66;;;13.75;61.61
12973;BME280;6551;51.056;9.466;2024-03-02T02:45:10;96350.09;;;13.69;61.41
12973;BME280;6551;51.056;9.466;2024-03-02T02:47:38;96345.28;;;13.66;61.34
12973;BME280;6551;51.056;9.466;2024-03-02T02:50:07;96342.84;;;13.64;61.33
12973;BME280;6551;51.056;9.466;2024-03-02T02:52:34;96338.88;;;13.57;61.36
12973;BME280;6551;51.056;9.466;2024-03-02T02:55:05;96333.00;;;13.55;60.69
12973;BME280;6551;51.056;9.466;2024-03-02T02:57:33;96333.78;;;13.50;61.10
12973;BME280;6551;51.056;9.466;2024-03-02T03:00:15;96329.00;;;13.37;61.29
12973;BME280;6551;51.056;9.466;2024-03-02T03:02:48;96337.81;;;13.32;61.41
12973;BME280;6551;51.056;9.466;2024-03-02T03:05:44;96332.47;;;13.37;61.59
12973;BME280;6551;51.056;9.466;2024-03-02T03:08:19;96331.13;;;13.35;61.62
12973;BME280;6551;51.056;9.466;2024-03-02T03:10:47;96329.78;;;13.42;61.73
12973;BME280;6551;51.056;9.466;2024-03-02T03:13:19;96331.91;;;13.30;61.04
12973;BME280;6551;51.056;9.466;2024-03-02T03:15:51;96336.22;;;13.26;61.23
12973;BME280;6551;51.056;9.466;2024-03-02T03:18:55;96329.00;;;13.17;62.03
12973;BME280;6551;51.056;9.466;2024-03-02T03:21:28;96330.59;;;13.18;62.20
12973;BME280;6551;51.056;9.466;2024-03-02T03:24:12;96322.84;;;13.16;61.54
12973;BME280;6551;51.056;9.466;2024-03-02T03:26:41;96329.22;;;13.05;61.63
12973;BME280;6551;51.056;9.466;2024-03-02T03:29:09;96323.88;;;13.00;62.54
12973;BME280;6551;51.056;9.466;2024-03-02T03:31:41;96319.88;;;12.98;62.76
12973;BME280;6551;51.056;9.466;2024-03-02T03:34:22;96318.81;;;12.99;62.88
12973;BME280;6551;51.056;9.466;2024-03-02T03:36:50;96327.34;;;13.01;62.95
12973;BME280;6551;51.056;9.466;2024-03-02T03:39:22;96324.16;;;13.04;62.96
12973;BME280;6551;51.056;9.466;2024-03-02T03:41:51;96314.28;;;12.99;63.47
12973;BME280;6551;51.056;9.466;2024-03-02T03:44:21;96315.34;;;13.08;63.15
12973;BME280;6551;51.056;9.466;2024-03-02T03:46:53;96323.13;;;13.10;62.52
12973;BME280;6551;51.056;9.466;2024-03-02T03:49:28;96312.13;;;12.96;62.12
12973;BME280;6551;51.056;9.466;2024-03-02T03:51:56;96311.31;;;12.90;61.77
12973;BME280;6551;51.056;9.466;2024-03-02T03:54:22;96309.72;;;12.79;61.55
12973;BME280;6551;51.056;9.466;2024-03-02T03:56:48;96314.22;;;12.64;61.34
12973;BME280;6551;51.056;9.466;2024-03-02T03:59:13;96320.88;;;12.51;61.15
12973;BME280;6551;51.056;9.466;2024-03-02T04:01:39;96316.59;;;12.55;61.72
12973;BME280;6551;51.056;9.466;2024-03-02T04:04:05;96316.06;;;12.48;61.30
12973;BME280;6551;51.056;9.466;2024-03-02T04:06:31;96316.59;;;12.45;61.20
12973;BME280;6551;51.056;9.466;2024-03-02T04:08:56;96310.94;;;12.31;61.41
12973;BME280;6551;51.056;9.466;2024-03-02T04:11:22;96307.47;;;12.26;61.00
12973;BME280;6551;51.056;9.466;2024-03-02T04:13:48;96315.72;;;12.24;61.09
12973;BME280;6551;51.056;9.466;2024-03-02T04:16:13;96304.78;;;12.26;61.22
12973;BME280;6551;51.056;9.466;2024-03-02T04:18:40;96306.66;;;12.30;61.62
12973;BME280;6551;51.056;9.466;2024-03-02T04:21:05;96307.16;;;12.22;61.25
12973;BME280;6551;51.056;9.466;2024-03-02T04:23:31;96303.69;;;12.22;61.16
12973;BME280;6551;51.056;9.466;2024-03-02T04:25:58;96299.16;;;12.17;61.49
12973;BME280;6551;51.056;9.466;2024-03-02T04:28:23;96313.81;;;12.10;61.29
12973;BME280;6551;51.056;9.466;2024-03-02T04:30:50;96313.53;;;12.11;61.69
12973;BME280;6551;51.056;9.466;2024-03-02T04:33:16;96315.66;;;12.04;61.30
12973;BME280;6551;51.056;9.466;2024-03-02T04:35:42;96314.06;;;12.08;61.40
12973;BME280;6551;51.056;9.466;2024-03-02T04:38:08;96315.06;;;11.97;61.29
12973;BME280;6551;51.056;9.466;2024-03-02T04:40:34;96318.84;;;12.01;62.00
12973;BME280;6551;51.056;9.466;2024-03-02T04:42:59;96306.84;;;12.04;62.62
12973;BME280;6551;51.056;9.466;2024-03-02T04:45:25;96314.06;;;12.13;62.57
12973;BME280;6551;51.056;9.466;2024-03-02T04:47:51;96311.16;;;12.10;62.61
12973;BME280;6551;51.056;9.466;2024-03-02T04:50:17;96319.44;;;12.18;63.26
12973;BME280;6551;51.056;9.466;2024-03-02T04:52:42;96320.50;;;12.17;64.39
12973;BME280;6551;51.056;9.466;2024-03-02T04:55:09;96318.41;;;12.29;64.40
12973;BME280;6551;51.056;9.466;2024-03-02T04:57:42;96316.06;;;12.43;63.99
12973;BME280;6551;51.056;9.466;2024-03-02T05:00:09;96323.84;;;12.65;63.71
12973;BME280;6551;51.056;9.466;2024-03-02T05:02:35;96319.53;;;12.54;62.42
12973;BME280;6551;51.056;9.466;2024-03-02T05:05:02;96313.97;;;12.65;62.03
12973;BME280;6551;51.056;9.466;2024-03-02T05:07:28;96323.03;;;12.64;62.32
12973;BME280;6551;51.056;9.466;2024-03-02T05:09:54;96324.66;;;12.60;62.06
12973;BME280;6551;51.056;9.466;2024-03-02T05:12:20;96322.22;;;12.64;62.53
12973;BME280;6551;51.056;9.466;2024-03-02T05:15:14;96330.00;;;12.70;62.17
12973;BME280;6551;51.056;9.466;2024-03-02T05:17:41;96318.25;;;12.76;62.01
12973;BME280;6551;51.056;9.466;2024-03-02T05:20:09;96327.06;;;12.77;62.00
12973;BME280;6551;51.056;9.466;2024-03-02T05:22:38;96322.50;;;12.77;61.61
12973;BME280;6551;51.056;9.466;2024-03-02T05:25:05;96336.44;;;12.79;62.51
12973;BME280;6551;51.056;9.466;2024-03-02T05:27:32;96323.59;;;12.81;62.41
12973;BME280;6551;51.056;9.466;2024-03-02T05:29:59;96330.81;;;12.86;61.52
12973;BME280;6551;51.056;9.466;2024-03-02T05:32:25;96342.81;;;12.73;61.52
12973;BME280;6551;51.056;9.466;2024-03-02T05:34:51;96344.16;;;12.66;61.94
12973;BME280;6551;51.056;9.466;2024-03-02T05:37:17;96344.16;;;12.76;61.98
12973;BME280;6551;51.056;9.466;2024-03-02T05:39:45;96348.44;;;12.82;61.91
12973;BME280;6551;51.056;9.466;2024-03-02T05:42:11;96344.69;;;12.73;61.58
12973;BME280;6551;51.056;9.466;2024-03-02T05:44:37;96344.97;;;12.71;61.97
12973;BME280;6551;51.056;9.466;2024-03-02T05:47:06;96346.25;;;12.69;63.03
12973;BME280;6551;51.056;9.466;2024-03-02T05:49:34;96349.22;;;12.67;63.06
12973;BME280;6551;51.056;9.466;2024-03-02T05:52:01;96348.97;;;12.74;63.33
12973;BME280;6551;51.056;9.466;2024-03-02T05:54:28;96348.16;;;12.78;62.57
12973;BME280;6551;51.056;9.466;2024-03-02T05:56:54;96343.34;;;12.85;62.78
12973;BME280;6551;51.056;9.466;2024-03-02T05:59:19;96354.25;;;12.59;63.52
12973;BME280;6551;51.056;9.466;2024-03-02T06:01:46;96351.59;;;12.54;63.46
12973;BME280;6551;51.056;9.466;2024-03-02T06:04:13;96362.03;;;12.70;63.63
12973;BME280;6551;51.056;9.466;2024-03-02T06:06:40;96359.66;;;12.79;62.47
12973;BME280;6551;51.056;9.466;2024-03-02T06:09:06;96349.22;;;12.77;62.52
12973;BME280;6551;51.056;9.466;2024-03-02T06:11:40;96356.25;;;13.09;61.92
12973;BME280;6551;51.056;9.466;2024-03-02T06:14:08;96347.66;;;13.07;61.59
12973;BME280;6551;51.056;9.466;2024-03-02T06:16:36;96358.66;;;13.10;61.61
12973;BME280;6551;51.056;9.466;2024-03-02T06:19:02;96356.47;;;12.82;61.77
12973;BME280;6551;51.056;9.466;2024-03-02T06:21:29;96355.69;;;13.02;61.41
12973;BME280;6551;51.056;9.466;2024-03-02T06:23:56;96359.19;;;13.27;60.68
12973;BME280;6551;51.056;9.466;2024-03-02T06:26:22;96354.91;;;13.41;60.23
12973;BME280;6551;51.056;9.466;2024-03-02T06:28:47;96358.91;;;13.44;59.59
12973;BME280;6551;51.056;9.466;2024-03-02T06:31:13;96365.88;;;13.40;59.95
12973;BME280;6551;51.056;9.466;2024-03-02T06:33:39;96369.34;;;13.20;60.02
12973;BME280;6551;51.056;9.466;2024-03-02T06:36:05;96372.56;;;13.53;59.43
12973;BME280;6551;51.056;9.466;2024-03-02T06:38:35;96375.78;;;13.34;59.71
12973;BME280;6551;51.056;9.466;2024-03-02T06:41:00;96378.16;;;13.61;59.46
12973;BME280;6551;51.056;9.466;2024-03-02T06:43:26;96381.34;;;13.83;58.92
12973;BME280;6551;51.056;9.466;2024-03-02T06:45:52;96384.31;;;13.77;58.98
12973;BME280;6551;51.056;9.466;2024-03-02T06:48:18;96388.19;;;14.30;58.20
12973;BME280;6551;51.056;9.466;2024-03-02T06:50:49;96397.81;;;14.36;58.09
12973;BME280;6551;51.056;9.466;2024-03-02T06:53:16;96397.56;;;14.27;57.98
12973;BME280;6551;51.056;9.466;2024-03-02T06:55:46;96394.09;;;14.27;57.85
12973;BME280;6551;51.056;9.466;2024-03-02T06:58:13;96396.47;;;14.38;57.59
12973;BME280;6551;51.056;9.466;2024-03-02T07:00:41;96401.56;;;14.45;57.30
12973;BME280;6551;51.056;9.466;2024-03-02T07:03:07;96404.25;;;14.40;57.33
12973;BME280;6551;51.056;9.466;2024-03-02T07:05:33;96406.56;;;14.61;57.56
12973;BME280;6551;51.056;9.466;2024-03-02T07:07:59;96411.06;;;14.76;57.35
12973;BME280;6551;51.056;9.466;2024-03-02T07:10:25;96415.47;;;14.42;56.68
12973;BME280;6551;51.056;9.466;2024-03-02T07:12:50;96413.22;;;15.62;55.53
12973;BME280;6551;51.056;9.466;2024-03-02T07:15:16;96416.56;;;15.39;55.03
12973;BME280;6551;51.056;9.466;2024-03-02T07:17:54;96420.94;;;15.24;55.12
12973;BME280;6551;51.056;9.466;2024-03-02T07:20:21;96418.47;;;15.33;55.36
12973;BME280;6551;51.056;9.466;2024-03-02T07:22:46;96429.16;;;15.43;55.39
12973;BME280;6551;51.056;9.466;2024-03-02T07:25:13;96434.72;;;15.57;54.94
12973;BME280;6551;51.056;9.466;2024-03-02T07:27:39;96431.63;;;15.73;54.84
12973;BME280;6551;51.056;9.466;2024-03-02T07:30:06;96441.84;;;16.29;53.81
12973;BME280;6551;51.056;9.466;2024-03-02T07:32:32;96431.78;;;16.39;53.40
12973;BME280;6551;51.056;9.466;2024-03-02T07:34:59;96429.56;;;16.47;53.23
12973;BME280;6551;51.056;9.466;2024-03-02T07:37:27;96432.97;;;17.00;52.13
12973;BME280;6551;51.056;9.466;2024-03-02T07:39:53;96427.66;;;17.50;51.42
12973;BME280;6551;51.056;9.466;2024-03-02T07:42:19;96431.97;;;17.51;50.40
12973;BME280;6551;51.056;9.466;2024-03-02T07:44:44;96432.25;;;17.69;50.08
12973;BME280;6551;51.056;9.466;2024-03-02T07:47:11;96435.44;;;16.96;50.49
12973;BME280;6551;51.056;9.466;2024-03-02T07:49:36;96440.00;;;16.77;51.09
12973;BME280;6551;51.056;9.466;2024-03-02T07:52:03;96442.72;;;16.95;51.16
12973;BME280;6551;51.056;9.466;2024-03-02T07:54:28;96447.66;;;16.65;51.85
12973;BME280;6551;51.056;9.466;2024-03-02T07:56:54;96448.00;;;16.82;51.51
12973;BME280;6551;51.056;9.466;2024-03-02T07:59:20;96450.97;;;16.57;51.66
12973;BME280;6551;51.056;9.466;2024-03-02T08:01:48;96451.78;;;16.52;52.35
12973;BME280;6551;51.056;9.466;2024-03-02T08:04:14;96456.81;;;16.64;52.42
12973;BME280;6551;51.056;9.466;2024-03-02T08:06:40;96456.56;;;16.84;52.19
12973;BME280;6551;51.056;9.466;2024-03-02T08:09:06;96455.84;;;16.97;51.64
12973;BME280;6551;51.056;9.466;2024-03-02T08:11:36;96452.44;;;16.91;51.86
12973;BME280;6551;51.056;9.466;2024-03-02T08:14:04;96451.44;;;16.64;52.38
12973;BME280;6551;51.056;9.466;2024-03-02T08:16:30;96461.53;;;16.72;52.03
12973;BME280;6551;51.056;9.466;2024-03-02T08:18:56;96460.59;;;16.63;52.11
12973;BME280;6551;51.056;9.466;2024-03-02T08:21:25;96463.03;;;16.83;52.23
12973;BME280;6551;51.056;9.466;2024-03-02T08:23:51;96468.19;;;16.79;52.27
12973;BME280;6551;51.056;9.466;2024-03-02T08:26:18;96459.13;;;16.94;52.06
12973;BME280;6551;51.056;9.466;2024-03-02T08:28:44;96464.22;;;16.95;51.85
12973;BME280;6551;51.056;9.466;2024-03-02T08:31:10;96464.38;;;17.04;51.55
12973;BME280;6551;51.056;9.466;2024-03-02T08:33:36;96454.44;;;17.23;51.70
12973;BME280;6551;51.056;9.466;2024-03-02T08:36:03;96457.84;;;17.47;51.08
12973;BME280;6551;51.056;9.466;2024-03-02T08:38:30;96452.31;;;17.39;50.88
12973;BME280;6551;51.056;9.466;2024-03-02T08:40:56;96441.22;;;17.27;51.20
12973;BME280;6551;51.056;9.466;2024-03-02T08:43:22;96448.34;;;17.55;51.04
12973;BME280;6551;51.056;9.466;2024-03-02T08:45:48;96450.81;;;17.70;50.38
12973;BME280;6551;51.056;9.466;2024-03-02T08:48:15;96450.34;;;17.44;50.21
12973;BME280;6551;51.056;9.466;2024-03-02T08:50:41;96457.00;;;17.71;50.23
12973;BME280;6551;51.056;9.466;2024-03-02T08:53:07;96448.91;;;17.33;50.61
12973;BME280;6551;51.056;9.466;2024-03-02T08:55:32;96460.81;;;17.27;50.65
12973;BME280;6551;51.056;9.466;2024-03-02T08:57:58;96454.94;;;17.07;50.73
12973;BME280;6551;51.056;9.466;2024-03-02T09:00:24;96464.56;;;17.31;50.70
12973;BME280;6551;51.056;9.466;2024-03-02T09:02:51;96448.66;;;16.92;50.76
12973;BME280;6551;51.056;9.466;2024-03-02T09:05:17;96461.28;;;17.16;51.53
12973;BME280;6551;51.056;9.466;2024-03-02T09:07:43;96452.91;;;17.36;50.84
12973;BME280;6551;51.056;9.466;2024-03-02T09:10:09;96454.88;;;17.49;50.86
12973;BME280;6551;51.056;9.466;2024-03-02T09:12:35;96461.31;;;17.11;50.74
12973;BME280;6551;51.056;9.466;2024-03-02T09:15:02;96461.34;;;17.29;50.81
12973;BME280;6551;51.056;9.466;2024-03-02T09:17:35;96465.84;;;17.34;50.93
12973;BME280;6551;51.056;9.466;2024-03-02T09:20:01;96471.66;;;16.80;51.21
12973;BME280;6551;51.056;9.466;2024-03-02T09:22:29;96464.28;;;16.43;52.31
12973;BME280;6551;51.056;9.466;2024-03-02T09:24:56;96471.97;;;16.55;52.36
12973;BME280;6551;51.056;9.466;2024-03-02T09:27:24;96470.44;;;16.44;52.15
12973;BME280;6551;51.056;9.466;2024-03-02T09:29:53;96473.16;;;16.38;52.16
12973;BME280;6551;51.056;9.466;2024-03-02T09:32:19;96467.03;;;16.33;52.06
12973;BME280;6551;51.056;9.466;2024-03-02T09:34:44;96469.34;;;16.45;52.64
12973;BME280;6551;51.056;9.466;2024-03-02T09:37:10;96470.28;;;16.30;52.68
12973;BME280;6551;51.056;9.466;2024-03-02T09:39:36;96469.16;;;16.12;53.15
12973;BME280;6551;51.056;9.466;2024-03-02T09:42:04;96470.78;;;16.08;52.89
12973;BME280;6551;51.056;9.466;2024-03-02T09:44:34;96462.72;;;16.08;53.15
12973;BME280;6551;51.056;9.466;2024-03-02T09:47:00;96475.47;;;16.50;52.27
12973;BME280;6551;51.056;9.466;2024-03-02T09:49:28;96478.63;;;16.00;52.24
12973;BME280;6551;51.056;9.466;2024-03-02T09:51:56;96482.47;;;16.51;52.35
12973;BME280;6551;51.056;9.466;2024-03-02T09:54:22;96475.16;;;16.57;51.13
12973;BME280;6551;51.056;9.466;2024-03-02T09:56:50;96486.84;;;16.71;50.97
12973;BME280;6551;51.056;9.466;2024-03-02T09:59:17;96474.94;;;16.53;50.57
12973;BME280;6551;51.056;9.466;2024-03-02T10:02:02;96482.47;;;17.60;49.97
12973;BME280;6551;51.056;9.466;2024-03-02T10:04:30;96483.19;;;17.84;48.54
12973;BME280;6551;51.056;9.466;2024-03-02T10:07:09;96488.56;;;19.16;47.35
12973;BME280;6551;51.056;9.466;2024-03-02T10:09:36;96468.53;;;19.80;44.77
12973;BME280;6551;51.056;9.466;2024-03-02T10:12:09;96482.78;;;21.09;43.39
12973;BME280;6551;51.056;9.466;2024-03-02T10:14:35;96484.00;;;21.94;41.92
12973;BME280;6551;51.056;9.466;2024-03-02T10:17:06;96473.59;;;22.85;40.94
12973;BME280;6551;51.056;9.466;2024-03-02T10:19:34;96468.91;;;23.32;38.81
12973;BME280;6551;51.056;9.466;2024-03-02T10:22:07;96474.59;;;23.68;38.97
12973;BME280;6551;51.056;9.466;2024-03-02T10:24:43;96473.06;;;23.29;38.10
12973;BME280;6551;51.056;9.466;2024-03-02T10:27:18;96481.72;;;23.23;39.00
12973;BME280;6551;51.056;9.466;2024-03-02T10:29:47;96469.94;;;23.90;38.12
12973;BME280;6551;51.056;9.466;2024-03-02T10:32:13;96477.53;;;22.50;39.03
12973;BME280;6551;51.056;9.466;2024-03-02T10:34:45;96478.25;;;23.14;38.69
12973;BME280;6551;51.056;9.466;2024-03-02T10:37:12;96473.47;;;23.11;38.62
12973;BME280;6551;51.056;9.466;2024-03-02T10:39:39;96476.78;;;23.96;38.36
12973;BME280;6551;51.056;9.466;2024-03-02T10:42:06;96467.88;;;23.66;37.49
12973;BME280;6551;51.056;9.466;2024-03-02T10:44:33;96469.28;;;23.93;37.32
12973;BME280;6551;51.056;9.466;2024-03-02T10:47:01;96467.25;;;24.67;36.37
12973;BME280;6551;51.056;9.466;2024-03-02T10:49:31;96466.47;;;24.67;36.75
12973;BME280;6551;51.056;9.466;2024-03-02T10:52:00;96468.91;;;24.92;36.38
12973;BME280;6551;51.056;9.466;2024-03-02T10:54:27;96466.16;;;24.80;36.09
12973;BME280;6551;51.056;9.466;2024-03-02T10:56:58;96467.97;;;24.88;36.36
12973;BME280;6551;51.056;9.466;2024-03-02T10:59:37;96460.16;;;25.23;36.21
12973;BME280;6551;51.056;9.466;2024-03-02T11:02:12;96470.84;;;24.47;36.84
12973;BME280;6551;51.056;9.466;2024-03-02T11:04:44;96465.44;;;24.59;36.79
12973;BME280;6551;51.056;9.466;2024-03-02T11:07:13;96458.16;;;24.51;37.18
12973;BME280;6551;51.056;9.466;2024-03-02T11:09:55;96465.78;;;24.13;37.03
12973;BME280;6551;51.056;9.466;2024-03-02T11:12:34;96459.41;;;24.66;36.23
12973;BME280;6551;51.056;9.466;2024-03-02T11:15:22;96460.72;;;24.35;37.27
12973;BME280;6551;51.056;9.466;2024-03-02T11:17:51;96455.22;;;24.11;37.51
12973;BME280;6551;51.056;9.466;2024-03-02T11:20:17;96463.53;;;23.23;37.94
12973;BME280;6551;51.056;9.466;2024-03-02T11:22:44;96467.09;;;23.65;37.63
12973;BME280;6551;51.056;9.466;2024-03-02T11:25:28;96464.97;;;23.71;37.35
12973;BME280;6551;51.056;9.466;2024-03-02T11:33:10;96464.38;;;23.45;37.31
12973;BME280;6551;51.056;9.466;2024-03-02T11:35:37;96460.91;;;22.68;37.97
12973;BME280;6551;51.056;9.466;2024-03-02T11:38:04;96452.25;;;22.75;37.99
12973;BME280;6551;51.056;9.466;2024-03-02T11:40:32;96458.38;;;23.01;38.23
12973;BME280;6551;51.056;9.466;2024-03-02T11:42:59;96458.09;;;22.39;37.98
12973;BME280;6551;51.056;9.466;2024-03-02T11:45:27;96458.22;;;22.98;38.71
12973;BME280;6551;51.056;9.466;2024-03-02T11:47:57;96457.50;;;22.80;38.34
12973;BME280;6551;51.056;9.466;2024-03-02T11:50:51;96451.81;;;23.02;38.28
12973;BME280;6551;51.056;9.466;2024-03-02T11:53:18;96444.78;;;21.91;39.27
12973;BME280;6551;51.056;9.466;2024-03-02T11:55:45;96444.63;;;21.53;39.35
12973;BME280;6551;51.056;9.466;2024-03-02T11:58:13;96457.34;;;21.36;40.28
12973;BME280;6551;51.056;9.466;2024-03-02T12:00:39;96453.06;;;21.52;40.51
12973;BME280;6551;51.056;9.466;2024-03-02T12:03:07;96440.16;;;21.40;40.04
12973;BME280;6551;51.056;9.466;2024-03-02T12:05:35;96441.91;;;21.45;40.53
12973;BME280;6551;51.056;9.466;2024-03-02T12:08:06;96444.47;;;21.76;40.27
12973;BME280;6551;51.056;9.466;2024-03-02T12:10:33;96440.31;;;21.27;40.65
12973;BME280;6551;51.056;9.466;2024-03-02T12:13:06;96437.13;;;21.76;41.19
12973;BME280;6551;51.056;9.466;2024-03-02T12:15:35;96446.56;;;21.96;40.33
12973;BME280;6551;51.056;9.466;2024-03-02T12:18:02;96431.03;;;22.22;38.44
12973;BME280;6551;51.056;9.466;2024-03-02T12:20:30;96441.38;;;22.37;38.88
12973;BME280;6551;51.056;9.466;2024-03-02T12:23:02;96434.06;;;22.21;39.50
12973;BME280;6551;51.056;9.466;2024-03-02T12:25:28;96432.09;;;22.38;38.56
12973;BME280;6551;51.056;9.466;2024-03-02T12:27:57;96433.00;;;22.04;39.04
12973;BME280;6551;51.056;9.466;2024-03-02T12:30:23;96419.69;;;22.29;39.36
12973;BME280;6551;51.056;9.466;2024-03-02T12:32:50;96420.34;;;22.26;38.28
12973;BME280;6551;51.056;9.466;2024-03-02T12:35:18;96413.94;;;22.22;38.00
12973;BME280;6551;51.056;9.466;2024-03-02T12:37:45;96413.81;;;22.18;38.31
12973;BME280;6551;51.056;9.466;2024-03-02T12:40:13;96403.91;;;22.22;38.85
12973;BME280;6551;51.056;9.466;2024-03-02T12:42:40;96414.56;;;22.27;38.84
12973;BME280;6551;51.056;9.466;2024-03-02T12:45:08;96409.56;;;21.91;37.89
12973;BME280;6551;51.056;9.466;2024-03-02T12:47:34;96407.25;;;22.19;38.09
12973;BME280;6551;51.056;9.466;2024-03-02T12:50:02;96397.16;;;22.37;38.15
12973;BME280;6551;51.056;9.466;2024-03-02T12:52:28;96398.00;;;22.20;37.67
12973;BME280;6551;51.056;9.466;2024-03-02T12:54:54;96398.84;;;22.12;37.78
12973;BME280;6551;51.056;9.466;2024-03-02T13:01:08;96396.63;;;21.80;38.53
12973;BME280;6551;51.056;9.466;2024-03-02T13:03:40;96388.44;;;20.85;38.19
12973;BME280;6551;51.056;9.466;2024-03-02T13:06:07;96395.13;;;20.96;39.65
12973;BME280;6551;51.056;9.466;2024-03-02T13:08:34;96388.22;;;21.21;38.25
12973;BME280;6551;51.056;9.466;2024-03-02T13:10:59;96391.25;;;21.37;38.01
12973;BME280;6551;51.056;9.466;2024-03-02T13:13:25;96385.50;;;21.64;38.46
12973;BME280;6551;51.056;9.466;2024-03-02T13:15:55;96381.97;;;21.89;37.17
12973;BME280;6551;51.056;9.466;2024-03-02T13:18:22;96387.75;;;21.53;37.30
12973;BME280;6551;51.056;9.466;2024-03-02T13:20:48;96384.84;;;21.76;37.49
12973;BME280;6551;51.056;9.466;2024-03-02T13:23:14;96379.22;;;22.06;37.92
12973;BME280;6551;51.056;9.466;2024-03-02T13:25:40;96371.09;;;22.06;37.92
12973;BME280;6551;51.056;9.466;2024-03-02T13:28:06;96372.94;;;22.32;37.30